Time,TemperatureF,DewpointF,PressureIn,WindDirection,WindDirectionDegrees,WindSpeedMPH,WindSpeedGustMPH,Humidity,HourlyPrecipIn,Conditions,Clouds,dailyrainin,SoftwareType,DateUTC
2013-03-27 00:02:00,59.0,13.0,30.07,SSW,203,4.0,8.0,16,0.00,,,0.01,,2013-03-27 06:02:00,
2013-03-27 00:12:00,59.0,13.0,30.07,SSW,203,4.0,8.0,16,0.00,,,0.01,,2013-03-27 06:12:00,
2013-03-27 00:22:00,61.0,14.0,30.07,South,173,2.0,8.0,16,0.00,,,0.00,,2013-03-27 06:22:00,
2013-03-27 00:32:00,59.0,16.0,30.07,South,173,0.0,5.0,18,0.00,,,0.00,,2013-03-27 06:32:00,
2013-03-27 00:42:00,59.0,16.0,30.07,South,173,0.0,5.0,18,0.00,,,0.00,,2013-03-27 06:42:00,
2013-03-27 00:53:00,55.0,18.0,30.07,West,278,0.0,3.0,23,0.00,,,0.00,,2013-03-27 06:53:00,
2013-03-27 01:02:00,54.0,17.0,30.07,SW,214,0.0,3.0,23,0.00,,,0.00,,2013-03-27 07:02:00,
2013-03-27 01:12:00,54.0,17.0,30.07,SW,214,0.0,3.0,23,0.00,,,0.00,,2013-03-27 07:12:00,
2013-03-27 01:22:00,53.0,19.0,30.07,SW,214,0.0,0.0,26,0.00,,,0.00,,2013-03-27 07:22:00,
2013-03-27 01:32:00,52.0,19.0,30.06,SW,214,0.0,0.0,27,0.00,,,0.00,,2013-03-27 07:32:00,
2013-03-27 01:42:00,52.0,19.0,30.06,SW,214,0.0,0.0,27,0.00,,,0.00,,2013-03-27 07:42:00,
2013-03-27 01:53:00,51.0,21.0,30.06,SW,214,0.0,0.0,30,0.00,,,0.00,,2013-03-27 07:53:00,
2013-03-27 02:02:00,50.0,21.0,30.06,SW,214,0.0,0.0,31,0.00,,,0.00,,2013-03-27 08:02:00,
2013-03-27 02:12:00,50.0,21.0,30.06,SW,214,0.0,0.0,31,0.00,,,0.00,,2013-03-27 08:12:00,
2013-03-27 02:22:00,49.0,20.0,30.06,SW,214,0.0,0.0,31,0.00,,,0.00,,2013-03-27 08:22:00,
2013-03-27 02:32:00,49.0,19.0,30.06,SW,214,0.0,0.0,30,0.00,,,0.00,,2013-03-27 08:32:00,
2013-03-27 02:43:00,49.0,19.0,30.06,SW,214,0.0,0.0,30,0.00,,,0.00,,2013-03-27 08:43:00,
2013-03-27 02:52:00,49.0,19.0,30.05,SW,214,0.0,0.0,30,0.00,,,0.00,,2013-03-27 08:52:00,
2013-03-27 03:01:00,48.0,18.0,30.05,SW,214,0.0,0.0,30,0.00,,,0.00,,2013-03-27 09:01:00,
2013-03-27 03:12:00,48.0,18.0,30.05,SW,214,0.0,0.0,30,0.00,,,0.00,,2013-03-27 09:12:00,
2013-03-27 03:22:00,48.0,19.0,30.05,SW,214,0.0,0.0,31,0.00,,,0.00,,2013-03-27 09:22:00,
2013-03-27 03:32:00,47.0,19.0,30.04,SW,214,0.0,0.0,33,0.00,,,0.00,,2013-03-27 09:32:00,
2013-03-27 03:42:00,47.0,19.0,30.04,SW,214,0.0,0.0,33,0.00,,,0.00,,2013-03-27 09:42:00,
2013-03-27 03:52:00,47.0,20.0,30.04,SW,214,0.0,0.0,34,0.00,,,0.00,,2013-03-27 09:52:00,
2013-03-27 04:02:00,46.0,20.0,30.03,SW,214,0.0,0.0,35,0.00,,,0.00,,2013-03-27 10:02:00,
2013-03-27 04:12:00,46.0,20.0,30.03,SW,214,0.0,0.0,35,0.00,,,0.00,,2013-03-27 10:12:00,
2013-03-27 04:22:00,46.0,21.0,30.03,SW,214,0.0,0.0,36,0.00,,,0.00,,2013-03-27 10:22:00,
2013-03-27 04:32:00,45.0,20.0,30.03,SW,214,0.0,0.0,37,0.00,,,0.00,,2013-03-27 10:32:00,
2013-03-27 04:42:00,45.0,20.0,30.03,SW,214,0.0,0.0,37,0.00,,,0.00,,2013-03-27 10:42:00,
2013-03-27 04:53:00,45.0,21.0,30.04,SW,214,0.0,0.0,38,0.00,,,0.00,,2013-03-27 10:53:00,
2013-03-27 05:02:00,44.0,19.0,30.04,North,7,0.0,0.0,36,0.00,,,0.00,,2013-03-27 11:02:00,
2013-03-27 05:12:00,44.0,19.0,30.04,North,7,0.0,0.0,36,0.00,,,0.00,,2013-03-27 11:12:00,
2013-03-27 05:22:00,44.0,19.0,30.04,North,7,0.0,0.0,37,0.00,,,0.00,,2013-03-27 11:22:00,
2013-03-27 05:32:00,44.0,20.0,30.04,North,7,0.0,0.0,38,0.00,,,0.00,,2013-03-27 11:32:00,
2013-03-27 05:42:00,44.0,20.0,30.04,North,7,0.0,0.0,38,0.00,,,0.00,,2013-03-27 11:42:00,
2013-03-27 05:52:00,44.0,21.0,30.05,North,7,0.0,0.0,39,0.00,,,0.00,,2013-03-27 11:52:00,
2013-03-27 06:02:00,43.0,20.0,30.05,North,7,0.0,0.0,40,0.00,,,0.00,,2013-03-27 12:02:00,
2013-03-27 06:12:00,43.0,20.0,30.05,North,7,0.0,0.0,40,0.00,,,0.00,,2013-03-27 12:12:00,
2013-03-27 06:22:00,44.0,21.0,30.06,North,7,0.0,0.0,39,0.00,,,0.00,,2013-03-27 12:22:00,
2013-03-27 06:32:00,44.0,21.0,30.06,North,7,0.0,0.0,39,0.00,,,0.00,,2013-03-27 12:32:00,
2013-03-27 06:43:00,44.0,21.0,30.06,North,7,0.0,0.0,39,0.00,,,0.00,,2013-03-27 12:43:00,
2013-03-27 06:52:00,44.0,21.0,30.07,North,7,0.0,0.0,40,0.00,,,0.00,,2013-03-27 12:52:00,
2013-03-27 07:02:00,44.0,21.0,30.07,North,7,0.0,0.0,40,0.00,,,0.00,,2013-03-27 13:02:00,
2013-03-27 07:12:00,44.0,21.0,30.07,North,7,0.0,0.0,40,0.00,,,0.00,,2013-03-27 13:12:00,
2013-03-27 07:22:00,44.0,21.0,30.08,North,7,0.0,0.0,40,0.00,,,0.00,,2013-03-27 13:22:00,
2013-03-27 07:32:00,43.0,20.0,30.09,North,7,0.0,0.0,40,0.00,,,0.00,,2013-03-27 13:32:00,
2013-03-27 07:42:00,43.0,20.0,30.09,North,7,0.0,0.0,40,0.00,,,0.00,,2013-03-27 13:42:00,
2013-03-27 07:52:00,44.0,21.0,30.09,North,7,0.0,0.0,40,0.00,,,0.00,,2013-03-27 13:52:00,
2013-03-27 08:02:00,45.0,23.0,30.09,North,7,0.0,0.0,41,0.00,,,0.00,,2013-03-27 14:02:00,
2013-03-27 08:12:00,45.0,23.0,30.09,North,7,0.0,0.0,41,0.00,,,0.00,,2013-03-27 14:12:00,
2013-03-27 08:22:00,46.0,21.0,30.10,North,7,0.0,0.0,36,0.00,,,0.00,,2013-03-27 14:22:00,
2013-03-27 08:32:00,47.0,21.0,30.10,North,7,0.0,0.0,36,0.00,,,0.00,,2013-03-27 14:32:00,
2013-03-27 08:42:00,47.0,21.0,30.10,North,7,0.0,0.0,36,0.00,,,0.00,,2013-03-27 14:42:00,
2013-03-27 08:52:00,49.0,20.0,30.11,North,352,3.0,4.0,32,0.00,,,0.00,,2013-03-27 14:52:00,
2013-03-27 09:02:00,51.0,20.0,30.12,North,350,0.0,5.0,29,0.00,,,0.00,,2013-03-27 15:02:00,
2013-03-27 09:12:00,51.0,20.0,30.12,North,350,0.0,5.0,29,0.00,,,0.00,,2013-03-27 15:12:00,
2013-03-27 09:22:00,52.0,20.0,30.12,NNW,339,2.0,4.0,28,0.00,,,0.00,,2013-03-27 15:22:00,
2013-03-27 09:33:00,53.0,19.0,30.12,NNW,339,2.0,5.0,26,0.00,,,0.00,,2013-03-27 15:33:00,
2013-03-27 09:42:00,53.0,19.0,30.12,NNW,339,2.0,5.0,26,0.00,,,0.00,,2013-03-27 15:42:00,
2013-03-27 09:52:00,54.0,18.0,30.12,North,3,3.0,5.0,24,0.00,,,0.00,,2013-03-27 15:52:00,
2013-03-27 10:02:00,55.0,19.0,30.12,NNW,343,1.0,5.0,24,0.00,,,0.00,,2013-03-27 16:02:00,
2013-03-27 10:12:00,55.0,19.0,30.12,NNW,343,1.0,5.0,24,0.00,,,0.00,,2013-03-27 16:12:00,
2013-03-27 10:22:00,56.0,19.0,30.13,NNW,346,0.0,2.0,23,0.00,,,0.00,,2013-03-27 16:22:00,
2013-03-27 10:32:00,58.0,18.0,30.13,NW,315,0.0,1.0,21,0.00,,,0.00,,2013-03-27 16:32:00,
2013-03-27 10:42:00,58.0,18.0,30.13,NW,315,0.0,1.0,21,0.00,,,0.00,,2013-03-27 16:42:00,
2013-03-27 10:52:00,60.0,19.0,30.13,WNW,290,0.0,0.0,20,0.00,,,0.00,,2013-03-27 16:52:00,
2013-03-27 11:02:00,62.0,18.0,30.13,WSW,240,2.0,3.0,18,0.00,,,0.00,,2013-03-27 17:02:00,
2013-03-27 11:12:00,62.0,18.0,30.13,WSW,240,2.0,3.0,18,0.00,,,0.00,,2013-03-27 17:12:00,
2013-03-27 11:22:00,62.0,18.0,30.13,SW,218,2.0,3.0,18,0.00,,,0.00,,2013-03-27 17:22:00,
2013-03-27 11:32:00,63.0,16.0,30.13,South,180,4.0,7.0,16,0.00,,,0.00,,2013-03-27 17:32:00,
2013-03-27 11:44:00,63.0,16.0,30.13,South,180,4.0,7.0,16,0.00,,,0.00,,2013-03-27 17:44:00,
2013-03-27 11:52:00,64.0,17.0,30.13,SSW,200,4.0,8.0,16,0.00,,,0.00,,2013-03-27 17:52:00,
2013-03-27 12:02:00,64.0,17.0,30.13,South,190,3.0,6.0,16,0.00,,,0.00,,2013-03-27 18:02:00,
2013-03-27 12:12:00,64.0,17.0,30.13,South,190,3.0,6.0,16,0.00,,,0.00,,2013-03-27 18:12:00,
2013-03-27 12:22:00,65.0,16.0,30.13,SE,139,4.0,8.0,15,0.00,,,0.00,,2013-03-27 18:22:00,
2013-03-27 12:32:00,67.0,18.0,30.12,South,173,5.0,7.0,15,0.00,,,0.00,,2013-03-27 18:32:00,
2013-03-27 12:42:00,67.0,18.0,30.12,South,173,5.0,7.0,15,0.00,,,0.00,,2013-03-27 18:42:00,
2013-03-27 12:53:00,68.0,15.0,30.12,SSW,203,3.0,9.0,13,0.00,,,0.00,,2013-03-27 18:53:00,
2013-03-27 13:02:00,68.0,15.0,30.11,SSW,194,1.0,6.0,13,0.00,,,0.00,,2013-03-27 19:02:00,
2013-03-27 13:12:00,68.0,15.0,30.11,SSW,194,1.0,6.0,13,0.00,,,0.00,,2013-03-27 19:12:00,
2013-03-27 13:22:00,70.0,15.0,30.11,NW,314,0.0,6.0,12,0.00,,,0.00,,2013-03-27 19:22:00,
2013-03-27 13:32:00,72.0,12.0,30.10,North,350,2.0,8.0,10,0.00,,,0.00,,2013-03-27 19:32:00,
2013-03-27 13:42:00,72.0,12.0,30.10,North,350,2.0,8.0,10,0.00,,,0.00,,2013-03-27 19:42:00,
2013-03-27 13:52:00,73.0,11.0,30.09,NW,319,2.0,5.0,9,0.00,,,0.00,,2013-03-27 19:52:00,
2013-03-27 14:02:00,74.0,6.0,30.09,SW,236,2.0,8.0,7,0.00,,,0.00,,2013-03-27 20:02:00,
2013-03-27 14:12:00,74.0,6.0,30.09,SW,236,2.0,8.0,7,0.00,,,0.00,,2013-03-27 20:12:00,
2013-03-27 14:22:00,75.0,3.0,30.08,West,263,6.0,9.0,6,0.00,,,0.00,,2013-03-27 20:22:00,
2013-03-27 14:32:00,76.0,7.0,30.07,SSE,159,4.0,6.0,7,0.00,,,0.00,,2013-03-27 20:32:00,
2013-03-27 14:42:00,76.0,7.0,30.07,SSE,159,4.0,6.0,7,0.00,,,0.00,,2013-03-27 20:42:00,
2013-03-27 14:52:00,76.0,4.0,30.06,South,191,5.0,11.0,6,0.00,,,0.00,,2013-03-27 20:52:00,
2013-03-27 15:02:00,76.0,4.0,30.06,WNW,301,3.0,12.0,6,0.00,,,0.00,,2013-03-27 21:02:00,
2013-03-27 15:12:00,76.0,4.0,30.06,WNW,301,3.0,12.0,6,0.00,,,0.00,,2013-03-27 21:12:00,
2013-03-27 15:22:00,77.0,5.0,30.05,West,276,4.0,8.0,6,0.00,,,0.00,,2013-03-27 21:22:00,
2013-03-27 15:32:00,76.0,7.0,30.05,West,260,7.0,10.0,7,0.00,,,0.00,,2013-03-27 21:32:00,
2013-03-27 15:43:00,76.0,7.0,30.05,West,260,7.0,10.0,7,0.00,,,0.00,,2013-03-27 21:43:00,
2013-03-27 15:52:00,76.0,7.0,30.05,NNW,329,5.0,14.0,7,0.00,,,0.00,,2013-03-27 21:52:00,
2013-03-27 16:03:00,79.0,6.0,30.04,NW,309,3.0,13.0,6,0.00,,,0.00,,2013-03-27 22:03:00,
2013-03-27 16:12:00,79.0,6.0,30.04,NW,309,3.0,13.0,6,0.00,,,0.00,,2013-03-27 22:12:00,
2013-03-27 16:23:00,78.0,6.0,30.03,NW,316,11.0,16.0,6,0.00,,,0.00,,2013-03-27 22:23:00,
2013-03-27 16:33:00,79.0,6.0,30.03,NNW,330,3.0,15.0,6,0.00,,,0.00,,2013-03-27 22:33:00,
2013-03-27 16:42:00,79.0,6.0,30.03,NNW,330,3.0,15.0,6,0.00,,,0.00,,2013-03-27 22:42:00,
2013-03-27 16:52:00,78.0,6.0,30.02,WNW,290,3.0,13.0,6,0.00,,,0.00,,2013-03-27 22:52:00,
2013-03-27 17:02:00,78.0,6.0,30.02,WNW,287,5.0,9.0,6,0.00,,,0.00,,2013-03-27 23:02:00,
2013-03-27 17:12:00,78.0,6.0,30.02,WNW,287,5.0,9.0,6,0.00,,,0.00,,2013-03-27 23:12:00,
2013-03-27 17:22:00,78.0,6.0,30.02,NW,311,7.0,10.0,6,0.00,,,0.00,,2013-03-27 23:22:00,
2013-03-27 17:32:00,78.0,6.0,30.02,NW,325,6.0,12.0,6,0.00,,,0.00,,2013-03-27 23:32:00,
2013-03-27 17:42:00,78.0,6.0,30.02,NW,325,6.0,12.0,6,0.00,,,0.00,,2013-03-27 23:42:00,
2013-03-27 17:52:00,78.0,9.0,30.02,NNW,346,6.0,10.0,7,0.00,,,0.00,,2013-03-27 23:52:00,
2013-03-27 18:02:00,77.0,8.0,30.02,NNW,329,3.0,9.0,7,0.00,,,0.00,,2013-03-28 00:02:00,
2013-03-27 18:12:00,77.0,8.0,30.02,NNW,329,3.0,9.0,7,0.00,,,0.00,,2013-03-28 00:12:00,
2013-03-27 18:22:00,76.0,10.0,30.02,WNW,298,3.0,8.0,8,0.00,,,0.00,,2013-03-28 00:22:00,
2013-03-27 18:32:00,75.0,10.0,30.02,West,281,1.0,4.0,8,0.00,,,0.00,,2013-03-28 00:32:00,
2013-03-27 18:42:00,75.0,10.0,30.02,West,281,1.0,4.0,8,0.00,,,0.00,,2013-03-28 00:42:00,
2013-03-27 18:52:00,75.0,7.0,30.02,WNW,298,3.0,4.0,7,0.00,,,0.00,,2013-03-28 00:52:00,
2013-03-27 19:02:00,75.0,7.0,30.02,NW,325,0.0,0.0,7,0.00,,,0.00,,2013-03-28 01:02:00,
2013-03-27 19:12:00,75.0,7.0,30.02,NW,325,0.0,0.0,7,0.00,,,0.00,,2013-03-28 01:12:00,
2013-03-27 19:22:00,75.0,7.0,30.02,North,349,0.0,0.0,7,0.00,,,0.00,,2013-03-28 01:22:00,
2013-03-27 19:32:00,74.0,9.0,30.03,North,349,0.0,0.0,8,0.00,,,0.00,,2013-03-28 01:32:00,
2013-03-27 19:42:00,74.0,9.0,30.03,North,349,0.0,0.0,8,0.00,,,0.00,,2013-03-28 01:42:00,
2013-03-27 19:53:00,73.0,11.0,30.03,North,349,0.0,0.0,9,0.00,,,0.00,,2013-03-28 01:53:00,
2013-03-27 20:02:00,72.0,12.0,30.03,North,349,0.0,0.0,10,0.00,,,0.00,,2013-03-28 02:02:00,
2013-03-27 20:12:00,72.0,12.0,30.03,North,349,0.0,0.0,10,0.00,,,0.00,,2013-03-28 02:12:00,
2013-03-27 20:22:00,71.0,14.0,30.03,North,349,0.0,0.0,11,0.00,,,0.00,,2013-03-28 02:22:00,
2013-03-27 20:32:00,70.0,15.0,30.04,North,349,0.0,0.0,12,0.00,,,0.00,,2013-03-28 02:32:00,
2013-03-27 20:42:00,70.0,15.0,30.04,North,349,0.0,0.0,12,0.00,,,0.00,,2013-03-28 02:42:00,
2013-03-27 20:52:00,70.0,15.0,30.04,North,349,0.0,0.0,12,0.00,,,0.00,,2013-03-28 02:52:00,
2013-03-27 21:02:00,67.0,18.0,30.05,North,349,0.0,0.0,15,0.00,,,0.00,,2013-03-28 03:02:00,
2013-03-27 21:12:00,67.0,18.0,30.05,North,349,0.0,0.0,15,0.00,,,0.00,,2013-03-28 03:12:00,
2013-03-27 21:22:00,66.0,19.0,30.05,North,349,0.0,0.0,16,0.00,,,0.00,,2013-03-28 03:22:00,
2013-03-27 21:33:00,66.0,19.0,30.06,North,349,0.0,0.0,16,0.00,,,0.00,,2013-03-28 03:33:00,
2013-03-27 21:42:00,66.0,19.0,30.06,North,349,0.0,0.0,16,0.00,,,0.00,,2013-03-28 03:42:00,
2013-03-27 21:53:00,64.0,22.0,30.06,North,349,0.0,0.0,20,0.00,,,0.00,,2013-03-28 03:53:00,
2013-03-27 22:02:00,63.0,24.0,30.07,North,349,0.0,0.0,22,0.00,,,0.00,,2013-03-28 04:02:00,
2013-03-27 22:12:00,63.0,24.0,30.07,North,349,0.0,0.0,22,0.00,,,0.00,,2013-03-28 04:12:00,
2013-03-27 22:22:00,62.0,23.0,30.08,North,349,0.0,0.0,22,0.00,,,0.00,,2013-03-28 04:22:00,
2013-03-27 22:32:00,61.0,22.0,30.08,North,349,0.0,0.0,22,0.00,,,0.00,,2013-03-28 04:32:00,
2013-03-27 22:42:00,61.0,22.0,30.08,North,349,0.0,0.0,22,0.00,,,0.00,,2013-03-28 04:42:00,
2013-03-27 22:52:00,61.0,18.0,30.08,North,352,0.0,3.0,19,0.00,,,0.00,,2013-03-28 04:52:00,
2013-03-27 23:02:00,61.0,18.0,30.09,North,352,0.0,0.0,19,0.00,,,0.00,,2013-03-28 05:02:00,
2013-03-27 23:12:00,61.0,18.0,30.09,North,352,0.0,0.0,19,0.00,,,0.00,,2013-03-28 05:12:00,
2013-03-27 23:22:00,60.0,20.0,30.08,South,172,0.0,0.0,21,0.00,,,0.00,,2013-03-28 05:22:00,
2013-03-27 23:32:00,60.0,22.0,30.08,South,172,0.0,0.0,23,0.00,,,0.00,,2013-03-28 05:32:00,
2013-03-27 23:42:00,60.0,22.0,30.08,South,172,0.0,0.0,23,0.00,,,0.00,,2013-03-28 05:42:00,
2013-03-27 23:52:00,59.0,24.0,30.08,South,172,0.0,0.0,26,0.00,,,0.00,,2013-03-28 05:52:00,